createdAt,value
2018-10-05T00:00:45.051Z,14.07
2018-10-05T00:03:13.491Z,12.83
2018-10-05T00:05:41.926Z,12.33
2018-10-05T00:08:10.385Z,12.23
2018-10-05T00:10:38.785Z,10.67
2018-10-05T00:13:07.281Z,12.03
2018-10-05T00:15:35.821Z,11.13
2018-10-05T00:18:04.316Z,11.37
2018-10-05T00:20:32.821Z,10.97
2018-10-05T00:23:01.237Z,12.43
2018-10-05T00:25:29.669Z,12.50
2018-10-05T00:27:58.119Z,11.63
2018-10-05T00:30:26.580Z,12.80
2018-10-05T00:32:55.000Z,11.60
2018-10-05T00:35:23.459Z,10.90
2018-10-05T00:37:52.031Z,10.50
2018-10-05T00:40:20.424Z,10.97
2018-10-05T00:42:48.845Z,11.37
2018-10-05T00:45:17.271Z,10.73
2018-10-05T00:47:45.745Z,11.00
2018-10-05T00:50:14.183Z,10.37
2018-10-05T00:52:42.636Z,10.97
2018-10-05T00:55:11.074Z,10.80
2018-10-05T00:57:39.540Z,10.87
2018-10-05T01:00:08.084Z,11.77
2018-10-05T01:02:36.576Z,10.70
2018-10-05T01:05:05.079Z,11.33
2018-10-05T01:07:33.491Z,10.57
2018-10-05T01:10:01.998Z,11.03
2018-10-05T01:12:30.615Z,10.57
2018-10-05T01:14:59.121Z,11.10
2018-10-05T01:17:27.568Z,10.73
2018-10-05T01:19:56.108Z,10.67
2018-10-05T01:22:24.675Z,10.67
2018-10-05T01:24:53.360Z,10.97
2018-10-05T01:27:21.892Z,10.30
2018-10-05T01:29:50.876Z,11.07
2018-10-05T01:32:19.624Z,10.67
2018-10-05T01:34:48.565Z,10.07
2018-10-05T01:37:18.207Z,10.70
2018-10-05T01:39:47.047Z,10.93
2018-10-05T01:42:16.123Z,11.30
2018-10-05T01:44:45.184Z,10.87
2018-10-05T01:47:14.155Z,10.83
2018-10-05T01:49:43.488Z,11.23
2018-10-05T01:52:12.504Z,11.07
2018-10-05T01:54:41.498Z,11.27
2018-10-05T01:57:10.016Z,10.33
2018-10-05T01:59:39.057Z,11.07
2018-10-05T02:02:07.670Z,10.57
2018-10-05T02:04:36.931Z,10.10
2018-10-05T02:07:06.042Z,11.03
2018-10-05T02:09:34.927Z,11.13
2018-10-05T02:12:03.979Z,11.00
2018-10-05T02:14:33.501Z,11.20
2018-10-05T02:17:02.552Z,11.33
2018-10-05T02:19:31.373Z,11.77
2018-10-05T02:22:00.495Z,11.37
2018-10-05T02:24:29.434Z,11.13
2018-10-05T02:26:58.313Z,11.67
2018-10-05T02:29:27.364Z,10.97
2018-10-05T02:31:56.933Z,11.10
2018-10-05T02:34:25.862Z,11.37
2018-10-05T02:36:54.672Z,10.43
2018-10-05T02:39:23.584Z,12.20
2018-10-05T02:41:52.538Z,10.43
2018-10-05T02:44:21.193Z,12.33
2018-10-05T02:46:49.879Z,12.87
2018-10-05T02:49:18.685Z,12.40
2018-10-05T02:51:47.520Z,13.03
2018-10-05T02:54:16.377Z,12.57
2018-10-05T02:56:45.817Z,12.17
2018-10-05T02:59:15.005Z,12.73
2018-10-05T03:01:54.820Z,15.00
2018-10-05T03:04:23.808Z,14.93
2018-10-05T03:06:52.825Z,13.53
2018-10-05T03:09:22.315Z,14.20
2018-10-05T03:11:51.217Z,13.27
2018-10-05T03:14:19.967Z,13.83
2018-10-05T03:16:48.862Z,13.30
2018-10-05T03:19:17.467Z,12.83
2018-10-05T03:21:46.246Z,13.10
2018-10-05T03:24:14.908Z,12.60
2018-10-05T03:26:43.455Z,11.60
2018-10-05T03:29:11.946Z,12.77
2018-10-05T03:31:40.883Z,13.60
2018-10-05T03:34:09.529Z,13.50
2018-10-05T03:36:38.384Z,14.70
2018-10-05T03:39:07.474Z,13.77
2018-10-05T03:41:36.724Z,14.30
2018-10-05T03:44:05.678Z,13.70
2018-10-05T03:46:35.097Z,12.90
2018-10-05T03:49:04.162Z,12.73
2018-10-05T03:51:33.196Z,12.90
2018-10-05T03:54:02.299Z,13.27
2018-10-05T03:56:31.964Z,12.90
2018-10-05T03:59:00.542Z,11.73
2018-10-05T04:01:29.500Z,12.63
2018-10-05T04:03:58.358Z,11.70
2018-10-05T04:06:27.850Z,11.90
2018-10-05T04:08:56.726Z,12.60
2018-10-05T04:11:26.023Z,12.63
2018-10-05T04:13:55.202Z,12.73
2018-10-05T04:16:26.195Z,12.27
2018-10-05T04:18:55.735Z,12.93
2018-10-05T04:21:25.111Z,13.93
2018-10-05T04:23:54.286Z,14.80
2018-10-05T04:26:23.450Z,13.50
2018-10-05T04:28:52.220Z,13.97
2018-10-05T04:31:21.236Z,14.67
2018-10-05T04:33:49.962Z,14.53
2018-10-05T04:36:18.935Z,14.63
2018-10-05T04:38:48.059Z,14.13
2018-10-05T04:41:16.953Z,15.70
2018-10-05T04:43:45.680Z,14.57
2018-10-05T04:46:14.564Z,15.73
2018-10-05T04:48:43.273Z,14.90
2018-10-05T04:51:12.411Z,14.60
2018-10-05T04:53:41.249Z,15.37
2018-10-05T04:56:10.080Z,16.03
2018-10-05T04:58:39.129Z,16.33
2018-10-05T05:01:08.175Z,17.27
2018-10-05T05:03:37.535Z,15.60
2018-10-05T05:06:06.507Z,16.33
2018-10-05T05:08:35.841Z,16.93
2018-10-05T05:11:04.531Z,17.20
2018-10-05T05:13:33.733Z,17.40
2018-10-05T05:16:02.485Z,17.33
2018-10-05T05:18:31.063Z,17.90
2018-10-05T05:20:59.669Z,16.40
2018-10-05T05:23:28.356Z,16.83
2018-10-05T05:25:57.471Z,16.67
2018-10-05T05:28:26.092Z,16.70
2018-10-05T05:30:54.940Z,16.90
2018-10-05T05:33:24.224Z,15.80
2018-10-05T05:35:53.502Z,17.13
2018-10-05T05:38:22.202Z,17.20
2018-10-05T05:40:51.766Z,15.50
2018-10-05T05:43:20.372Z,14.03
2018-10-05T05:45:49.387Z,14.20
2018-10-05T05:48:18.559Z,12.63
2018-10-05T05:50:47.336Z,12.50
2018-10-05T05:53:16.777Z,11.10
2018-10-05T05:55:46.803Z,12.13
2018-10-05T05:58:15.520Z,10.13
2018-10-05T06:00:44.582Z,9.13
2018-10-05T06:03:13.145Z,8.90
2018-10-05T06:05:41.743Z,9.90
2018-10-05T06:08:10.305Z,8.27
2018-10-05T06:10:38.710Z,7.77
2018-10-05T06:13:07.305Z,7.57
2018-10-05T06:15:35.866Z,8.87
2018-10-05T06:18:05.017Z,9.00
2018-10-05T06:20:34.116Z,9.63
2018-10-05T06:23:03.183Z,8.63
2018-10-05T06:25:32.049Z,8.50
2018-10-05T06:28:01.068Z,8.27
2018-10-05T06:30:29.978Z,8.07
2018-10-05T06:32:59.089Z,7.87
2018-10-05T06:35:28.354Z,7.90
2018-10-05T06:37:57.374Z,7.10
2018-10-05T06:40:26.972Z,6.77
2018-10-05T06:42:55.879Z,5.87
2018-10-05T06:45:24.789Z,5.70
2018-10-05T06:47:53.824Z,6.37
2018-10-05T06:50:22.413Z,6.23
2018-10-05T06:52:51.160Z,6.43
2018-10-05T06:55:19.727Z,5.80
2018-10-05T06:57:48.429Z,4.97
2018-10-05T07:00:17.196Z,4.50
2018-10-05T07:02:45.953Z,4.77
2018-10-05T07:05:14.513Z,4.53
2018-10-05T07:07:43.165Z,4.50
2018-10-05T07:10:11.571Z,4.07
2018-10-05T07:12:40.081Z,4.70
2018-10-05T07:15:08.546Z,4.40
2018-10-05T07:17:37.005Z,4.60
2018-10-05T07:20:05.496Z,4.00
2018-10-05T07:22:33.989Z,4.53
2018-10-05T07:25:02.354Z,4.50
2018-10-05T07:27:31.132Z,4.37
2018-10-05T07:30:00.386Z,3.70
2018-10-05T07:32:29.244Z,3.43
2018-10-05T07:34:57.848Z,4.87
2018-10-05T07:37:26.512Z,3.60
2018-10-05T07:39:54.970Z,3.43
2018-10-05T07:42:23.596Z,2.97
2018-10-05T07:44:52.031Z,3.43
2018-10-05T07:47:20.707Z,2.93
2018-10-05T07:49:49.565Z,3.60
2018-10-05T07:52:18.424Z,4.27
2018-10-05T07:54:47.625Z,3.17
2018-10-05T07:57:17.150Z,3.40
2018-10-05T07:59:46.105Z,3.20
2018-10-05T08:02:14.874Z,3.50
2018-10-05T08:04:43.808Z,4.00
2018-10-05T08:07:13.093Z,3.40
2018-10-05T08:09:42.222Z,3.03
2018-10-05T08:12:12.604Z,3.63
2018-10-05T08:14:41.675Z,3.23
2018-10-05T08:17:10.806Z,3.57
2018-10-05T08:19:40.117Z,4.00
2018-10-05T08:22:08.931Z,3.60
2018-10-05T08:24:37.661Z,3.53
2018-10-05T08:27:07.361Z,2.90
2018-10-05T08:29:36.699Z,3.17
2018-10-05T08:32:06.033Z,2.80
2018-10-05T08:34:35.426Z,3.37
2018-10-05T08:37:03.905Z,3.60
2018-10-05T08:39:32.877Z,2.63
2018-10-05T08:42:01.809Z,3.23
2018-10-05T08:44:31.049Z,3.60
2018-10-05T08:46:59.960Z,2.87
2018-10-05T08:49:28.720Z,3.00
2018-10-05T08:51:57.553Z,3.63
2018-10-05T08:54:26.285Z,2.90
2018-10-05T08:56:55.601Z,3.23
2018-10-05T08:59:24.766Z,3.57
2018-10-05T09:01:53.713Z,4.10
2018-10-05T09:04:22.326Z,3.23
2018-10-05T09:06:51.452Z,3.37
2018-10-05T09:09:20.386Z,3.77
2018-10-05T09:11:49.695Z,3.17
2018-10-05T09:14:18.987Z,3.00
2018-10-05T09:16:47.961Z,3.40
2018-10-05T09:19:16.564Z,3.07
2018-10-05T09:21:45.092Z,2.80
2018-10-05T09:24:13.544Z,3.53
2018-10-05T09:26:42.060Z,3.37
2018-10-05T09:29:10.925Z,3.70
2018-10-05T09:31:39.643Z,3.47
2018-10-05T09:34:08.434Z,2.67
2018-10-05T09:36:37.611Z,2.63
2018-10-05T09:39:07.917Z,2.90
2018-10-05T09:41:37.028Z,3.10
2018-10-05T09:44:06.118Z,3.43
2018-10-05T09:46:35.295Z,2.97
2018-10-05T09:49:04.254Z,3.27
2018-10-05T09:51:33.224Z,2.77
2018-10-05T09:54:02.224Z,3.20
2018-10-05T09:56:31.398Z,3.50
2018-10-05T09:59:00.644Z,3.00
2018-10-05T10:01:34.408Z,3.30
2018-10-05T10:04:02.949Z,3.03
2018-10-05T10:06:32.038Z,3.30
2018-10-05T10:09:00.876Z,3.57
2018-10-05T10:11:29.681Z,2.97
2018-10-05T10:13:58.633Z,3.00
2018-10-05T10:16:27.522Z,3.10
2018-10-05T10:18:56.588Z,3.30
2018-10-05T10:21:25.674Z,3.07
2018-10-05T10:23:55.337Z,3.47
2018-10-05T10:26:24.288Z,3.17
2018-10-05T10:28:53.595Z,3.43
2018-10-05T10:31:22.906Z,3.10
2018-10-05T10:33:51.730Z,3.17
2018-10-05T10:36:23.221Z,2.93
2018-10-05T10:38:52.558Z,2.50
2018-10-05T10:41:21.485Z,2.53
2018-10-05T10:43:50.156Z,2.80
2018-10-05T10:46:18.814Z,3.13
2018-10-05T10:48:47.896Z,2.60
2018-10-05T10:51:17.088Z,3.07
2018-10-05T10:53:46.333Z,3.17
2018-10-05T10:56:15.074Z,3.40
2018-10-05T10:58:43.958Z,2.80
2018-10-05T11:01:14.446Z,2.90
2018-10-05T11:03:43.725Z,3.00
2018-10-05T11:06:12.432Z,3.17
2018-10-05T11:08:41.313Z,2.67
2018-10-05T11:11:10.463Z,3.20
2018-10-05T11:13:39.147Z,2.30
2018-10-05T11:16:08.468Z,2.87
2018-10-05T11:18:37.460Z,2.63
2018-10-05T11:21:06.928Z,3.10
2018-10-05T11:23:36.341Z,2.30
2018-10-05T11:26:05.987Z,2.60
2018-10-05T11:28:34.982Z,2.77
2018-10-05T11:31:04.221Z,2.37
2018-10-05T11:33:33.483Z,3.10
2018-10-05T11:36:02.757Z,2.90
2018-10-05T11:38:32.202Z,2.40
2018-10-05T11:41:01.714Z,2.17
2018-10-05T11:43:31.649Z,2.20
2018-10-05T11:46:01.408Z,2.73
2018-10-05T11:48:30.685Z,2.37
2018-10-05T11:50:59.862Z,2.47
2018-10-05T11:53:29.511Z,2.47
2018-10-05T11:55:59.411Z,2.70
2018-10-05T11:58:28.640Z,2.53
2018-10-05T12:00:57.900Z,3.13
2018-10-05T12:03:27.810Z,2.87
2018-10-05T12:05:57.065Z,2.40
2018-10-05T12:08:26.244Z,2.53
2018-10-05T12:10:55.425Z,2.73
2018-10-05T12:13:25.106Z,2.57
2018-10-05T12:15:54.338Z,2.70
2018-10-05T12:18:24.142Z,2.87
2018-10-05T12:20:53.514Z,2.20
2018-10-05T12:23:23.145Z,3.00
2018-10-05T12:25:52.431Z,2.50
2018-10-05T12:28:22.253Z,2.43
2018-10-05T12:30:52.223Z,1.93
2018-10-05T12:33:21.500Z,2.37
2018-10-05T12:35:50.836Z,1.93
2018-10-05T12:38:19.886Z,2.70
2018-10-05T12:40:49.202Z,2.20
2018-10-05T12:43:18.372Z,2.87
2018-10-05T12:45:48.012Z,1.87
2018-10-05T12:48:16.842Z,2.67
2018-10-05T12:50:45.822Z,2.37
2018-10-05T12:53:15.770Z,2.20
2018-10-05T12:55:45.190Z,2.10
2018-10-05T12:58:14.744Z,2.10
2018-10-05T13:00:43.990Z,2.23
2018-10-05T13:03:13.015Z,2.60
2018-10-05T13:05:41.970Z,2.37
2018-10-05T13:08:11.167Z,1.97
2018-10-05T13:10:40.559Z,2.60
2018-10-05T13:13:09.787Z,2.00
2018-10-05T13:15:39.046Z,2.23
2018-10-05T13:18:08.882Z,2.30
2018-10-05T13:20:38.621Z,2.30
2018-10-05T13:23:08.343Z,1.77
2018-10-05T13:25:37.581Z,1.93
2018-10-05T13:28:07.338Z,2.10
2018-10-05T13:30:36.665Z,2.27
2018-10-05T13:33:05.799Z,2.43
2018-10-05T13:35:34.862Z,2.40
2018-10-05T13:38:04.589Z,1.93
2018-10-05T13:40:33.609Z,2.50
2018-10-05T13:43:02.513Z,2.13
2018-10-05T13:45:31.318Z,1.70
2018-10-05T13:47:59.925Z,2.03
2018-10-05T13:50:28.587Z,1.83
2018-10-05T13:52:57.061Z,1.83
2018-10-05T13:55:25.643Z,1.77
2018-10-05T13:57:54.108Z,1.90
2018-10-05T14:00:22.804Z,1.73
2018-10-05T14:02:51.440Z,1.77
2018-10-05T14:05:19.876Z,1.80
2018-10-05T14:07:48.334Z,1.60
2018-10-05T14:10:16.940Z,1.50
2018-10-05T14:12:45.699Z,1.70
2018-10-05T14:15:14.447Z,1.80
2018-10-05T14:17:43.136Z,1.73
2018-10-05T14:20:12.042Z,2.17
2018-10-05T14:22:40.710Z,1.87
2018-10-05T14:25:09.263Z,1.90
2018-10-05T14:27:39.237Z,1.90
2018-10-05T14:30:07.812Z,1.70
2018-10-05T14:32:36.400Z,2.03
2018-10-05T14:35:05.440Z,1.57
2018-10-05T14:37:34.337Z,2.10
2018-10-05T14:40:03.202Z,1.90
2018-10-05T14:42:31.892Z,1.43
2018-10-05T14:45:00.402Z,2.00
2018-10-05T14:47:28.997Z,1.90
2018-10-05T14:49:57.670Z,1.60
2018-10-05T14:52:26.687Z,1.80
2018-10-05T14:54:56.176Z,1.60
2018-10-05T14:57:24.742Z,1.70
2018-10-05T14:59:53.989Z,2.10
2018-10-05T15:02:22.597Z,2.00
2018-10-05T15:04:51.258Z,1.80
2018-10-05T15:07:20.002Z,1.60
2018-10-05T15:09:48.482Z,1.97
2018-10-05T15:12:17.210Z,1.93
2018-10-05T15:14:45.716Z,2.30
2018-10-05T15:17:14.489Z,1.60
2018-10-05T15:19:43.012Z,1.73
2018-10-05T15:22:11.742Z,1.87
2018-10-05T15:24:40.349Z,2.07
2018-10-05T15:27:09.850Z,2.30
2018-10-05T15:29:39.026Z,2.03
2018-10-05T15:32:08.185Z,2.03
2018-10-05T15:34:36.778Z,1.70
2018-10-05T15:37:05.541Z,1.90
2018-10-05T15:39:34.135Z,1.83
2018-10-05T15:42:02.878Z,1.80
2018-10-05T15:44:31.464Z,1.77
2018-10-05T15:47:01.838Z,2.07
2018-10-05T15:49:31.248Z,1.47
2018-10-05T15:52:00.092Z,1.80
2018-10-05T15:54:28.754Z,2.20
2018-10-05T15:56:57.290Z,2.70
2018-10-05T15:59:26.518Z,2.13
2018-10-05T16:01:55.433Z,2.13
2018-10-05T16:04:23.930Z,1.87
2018-10-05T16:06:52.571Z,1.97
2018-10-05T16:09:21.440Z,1.90
2018-10-05T16:11:50.039Z,2.47
2018-10-05T16:14:18.827Z,2.10
2018-10-05T16:16:47.938Z,2.00
2018-10-05T16:19:16.956Z,2.10
2018-10-05T16:21:45.494Z,2.00
2018-10-05T16:24:20.505Z,2.37
2018-10-05T16:26:49.315Z,1.87
2018-10-05T16:29:17.858Z,2.80
2018-10-05T16:31:46.588Z,2.40
2018-10-05T16:34:15.170Z,1.93
2018-10-05T16:36:43.923Z,2.40
2018-10-05T16:39:12.713Z,2.30
2018-10-05T16:41:41.396Z,2.50
2018-10-05T16:44:10.114Z,2.00
2018-10-05T16:46:40.304Z,2.30
2018-10-05T16:49:10.651Z,2.10
2018-10-05T16:51:40.104Z,2.93
2018-10-05T16:54:09.034Z,2.27
2018-10-05T16:56:38.434Z,2.53
2018-10-05T16:59:07.534Z,2.40
2018-10-05T17:01:37.317Z,2.50
2018-10-05T17:04:06.569Z,2.33
2018-10-05T17:06:35.169Z,2.37
2018-10-05T17:09:07.371Z,2.83
2018-10-05T17:11:37.603Z,2.60
2018-10-05T17:14:06.399Z,2.70
2018-10-05T17:16:34.966Z,2.73
2018-10-05T17:19:04.147Z,2.73
2018-10-05T17:21:33.293Z,3.10
2018-10-05T17:24:02.281Z,2.57
2018-10-05T17:26:30.787Z,2.53
2018-10-05T17:28:59.619Z,2.50
2018-10-05T17:31:28.223Z,2.47
2018-10-05T17:33:56.893Z,2.40
2018-10-05T17:36:25.482Z,3.03
2018-10-05T17:38:54.182Z,3.03
2018-10-05T17:41:22.922Z,3.13
2018-10-05T17:43:52.604Z,2.67
2018-10-05T17:46:21.177Z,3.10
2018-10-05T17:48:49.685Z,2.83
2018-10-05T17:51:18.588Z,3.23
2018-10-05T17:53:47.223Z,3.00
2018-10-05T17:56:15.818Z,3.17
2018-10-05T17:58:44.583Z,3.17
2018-10-05T18:01:13.336Z,2.73
2018-10-05T18:03:42.040Z,3.43
2018-10-05T18:06:10.972Z,3.40
2018-10-05T18:08:39.712Z,3.40
2018-10-05T18:11:08.393Z,3.53
2018-10-05T18:13:36.963Z,3.33
2018-10-05T18:16:05.671Z,3.33
2018-10-05T18:18:34.155Z,3.50
2018-10-05T18:21:03.025Z,3.30
2018-10-05T18:23:31.493Z,3.47
2018-10-05T18:26:00.011Z,3.70
2018-10-05T18:28:28.599Z,3.20
2018-10-05T18:30:57.282Z,3.00
2018-10-05T18:33:25.801Z,3.70
2018-10-05T18:35:54.484Z,3.53
2018-10-05T18:38:23.126Z,3.63
2018-10-05T18:40:51.928Z,3.40
2018-10-05T18:43:20.438Z,4.00
2018-10-05T18:45:49.980Z,4.33
2018-10-05T18:48:18.732Z,3.97
2018-10-05T18:50:47.791Z,3.77
2018-10-05T18:53:16.431Z,4.40
2018-10-05T18:55:45.140Z,4.83
2018-10-05T18:58:13.651Z,11.17
2018-10-05T19:00:42.418Z,10.33
2018-10-05T19:03:11.057Z,6.23
2018-10-05T19:05:39.658Z,5.80
2018-10-05T19:08:08.124Z,4.67
2018-10-05T19:10:36.768Z,4.70
2018-10-05T19:13:05.605Z,4.50
2018-10-05T19:15:34.556Z,4.27
2018-10-05T19:18:03.397Z,4.43
2018-10-05T19:20:32.189Z,4.13
2018-10-05T19:23:00.921Z,4.50
2018-10-05T19:25:29.627Z,5.27
2018-10-05T19:27:58.250Z,5.10
2018-10-05T19:30:27.117Z,5.03
2018-10-05T19:32:55.915Z,4.30
2018-10-05T19:35:24.517Z,4.77
2018-10-05T19:37:53.304Z,5.07
2018-10-05T19:40:22.021Z,5.10
2018-10-05T19:42:50.609Z,5.20
2018-10-05T19:45:19.328Z,4.97
2018-10-05T19:47:48.260Z,4.53
2018-10-05T19:50:16.831Z,5.00
2018-10-05T19:52:45.467Z,5.53
2018-10-05T19:55:14.057Z,4.70
2018-10-05T19:57:42.757Z,4.40
2018-10-05T20:00:11.257Z,4.70
2018-10-05T20:02:39.899Z,4.13
2018-10-05T20:05:08.518Z,4.60
2018-10-05T20:07:37.071Z,4.63
2018-10-05T20:10:05.667Z,5.17
2018-10-05T20:12:35.358Z,4.90
2018-10-05T20:15:04.319Z,4.50
2018-10-05T20:17:33.217Z,4.93
2018-10-05T20:20:01.661Z,4.87
2018-10-05T20:22:30.238Z,5.27
2018-10-05T20:24:58.777Z,5.17
2018-10-05T20:27:27.576Z,5.00
2018-10-05T20:29:56.122Z,4.93
2018-10-05T20:32:24.762Z,4.47
2018-10-05T20:34:53.380Z,5.30
2018-10-05T20:37:22.244Z,5.43
2018-10-05T20:39:50.637Z,5.33
2018-10-05T20:42:19.234Z,5.17
2018-10-05T20:44:47.700Z,5.20
2018-10-05T20:47:16.538Z,4.77
2018-10-05T20:49:45.043Z,5.60
2018-10-05T20:52:13.825Z,5.27
2018-10-05T20:54:42.721Z,5.17
2018-10-05T20:57:12.208Z,5.40
2018-10-05T20:59:40.863Z,5.53
2018-10-05T21:02:09.446Z,6.43
2018-10-05T21:04:37.990Z,6.37
2018-10-05T21:07:06.834Z,5.77
2018-10-05T21:09:35.331Z,6.70
2018-10-05T21:12:04.099Z,6.80
2018-10-05T21:14:32.578Z,6.30
2018-10-05T21:17:01.105Z,7.03
2018-10-05T21:19:29.554Z,6.80
2018-10-05T21:21:58.085Z,7.00
2018-10-05T21:24:26.571Z,6.00
2018-10-05T21:26:56.342Z,6.67
2018-10-05T21:29:24.797Z,6.23
2018-10-05T21:31:53.337Z,6.67
2018-10-05T21:34:21.825Z,6.33
2018-10-05T21:36:50.528Z,6.67
2018-10-05T21:39:19.111Z,6.90
2018-10-05T21:41:47.822Z,7.50
2018-10-05T21:44:16.351Z,8.40
2018-10-05T21:46:44.941Z,7.30
2018-10-05T21:49:13.497Z,6.93
2018-10-05T21:51:42.215Z,8.07
2018-10-05T21:54:10.779Z,7.37
2018-10-05T21:56:39.350Z,7.50
2018-10-05T21:59:08.270Z,7.23
2018-10-05T22:01:36.931Z,7.67
2018-10-05T22:04:05.510Z,7.50
2018-10-05T22:06:34.362Z,8.67
2018-10-05T22:09:03.417Z,8.47
2018-10-05T22:11:32.114Z,8.17
2018-10-05T22:14:00.906Z,8.57
2018-10-05T22:16:29.386Z,7.67
2018-10-05T22:18:57.985Z,8.10
2018-10-05T22:21:26.519Z,7.63
2018-10-05T22:23:54.929Z,7.80
2018-10-05T22:26:23.653Z,7.80
2018-10-05T22:28:52.277Z,8.13
2018-10-05T22:31:20.983Z,8.13
2018-10-05T22:33:49.538Z,8.53
2018-10-05T22:36:18.278Z,8.10
2018-10-05T22:38:46.826Z,8.03
2018-10-05T22:41:15.552Z,8.20
2018-10-05T22:43:43.988Z,8.27
2018-10-05T22:46:12.680Z,7.97
2018-10-05T22:48:41.131Z,7.93
2018-10-05T22:51:09.713Z,8.00
2018-10-05T22:53:38.789Z,8.00
2018-10-05T22:56:07.724Z,7.27
2018-10-05T22:58:36.201Z,7.37
2018-10-05T23:01:05.174Z,8.30
2018-10-05T23:03:34.564Z,7.80
2018-10-05T23:06:03.116Z,7.80
2018-10-05T23:08:31.677Z,8.77
2018-10-05T23:11:00.502Z,8.60
2018-10-05T23:13:29.123Z,8.30
2018-10-05T23:15:57.891Z,8.00
2018-10-05T23:18:26.677Z,8.90
2018-10-05T23:20:55.228Z,8.80
2018-10-05T23:23:23.971Z,9.67
2018-10-05T23:25:52.461Z,9.27
2018-10-05T23:28:21.480Z,9.03
2018-10-05T23:30:50.077Z,8.77
2018-10-05T23:33:18.970Z,8.87
2018-10-05T23:35:47.440Z,8.97
2018-10-05T23:38:16.101Z,8.27
2018-10-05T23:40:44.543Z,9.77
2018-10-05T23:43:13.050Z,9.23
2018-10-05T23:45:41.669Z,9.40
2018-10-05T23:48:10.480Z,8.57
2018-10-05T23:50:40.269Z,9.63
2018-10-05T23:53:08.812Z,9.00
2018-10-05T23:55:37.488Z,9.27
2018-10-05T23:58:06.214Z,10.03
